METAR Data
IDs: Format: Raw Decoded Include TAF

Data at: 1428 UTC 22 Apr 2021

KDAB 221353Z 02015KT 10SM FEW200 19/08 A3014 RMK AO2 SLP204 T01890083
KDAB 221253Z 01013KT 10SM FEW070 FEW200 18/08 A3013 RMK AO2 SLP203 T01780083
KDAB 221153Z 01014KT 10SM FEW070 FEW200 17/08 A3011 RMK AO2 SLP196 T01670078 10178 20161 53023 $
KDAB 221053Z 01012KT 10SM SCT070 SCT200 17/08 A3009 RMK AO2 SLP189 T01670078 $
KDAB 220953Z 01012G21KT 10SM CLR 17/09 A3006 RMK AO2 SLP179 T01720089 $
KDAB 220853Z 36008G16KT 10SM FEW200 18/09 A3005 RMK AO2 SLP173 T01780089 53011 $
KDAB 220753Z 35009KT 10SM SCT200 18/12 A3001 RMK AO2 SLP163 T01780122 $
KDAB 220653Z 32003KT 10SM FEW200 17/15 A3001 RMK AO2 SLP160 T01720150 $
KDAB 220553Z 27004KT 10SM FEW200 17/14 A3001 RMK AO2 SLP163 T01670144 10250 20167 50003 $
KDAB 220453Z 28005KT 10SM FEW200 18/14 A3002 RMK AO2 SLP165 T01830144 402940178 $
KDAB 220353Z 26007KT 10SM SCT200 18/14 A3002 RMK AO2 SLP165 T01830139 $
KDAB 220253Z 26007KT 10SM SCT200 20/14 A3000 RMK AO2 SLP159 T02000139 53020 $
KDAB 220153Z 25006KT 10SM FEW200 20/14 A2998 RMK AO2 SLP151 T02000139 $
KDAB 220053Z 00000KT 10SM SCT200 21/16 A2996 RMK AO2 SLP145 T02060161
KDAB 212353Z 29003KT 10SM SCT200 25/12 A2994 RMK AO2 SLP139 T02500117 10294 20250 53008
KDAB 212253Z 28008KT 10SM FEW055 SCT250 28/11 A2993 RMK AO2 SLP135 T02780106
KDAB 212153Z 28008KT 10SM FEW055 FEW250 29/11 A2992 RMK AO2 SLP130 T02890111
KDAB 212053Z 29009G16KT 10SM FEW055 FEW250 29/12 A2992 RMK AO2 SLP131 T02940117 56015
KDAB 211953Z 25013G17KT 10SM FEW055 FEW250 29/12 A2993 RMK AO2 SLP134 T02890122
KDAB 211853Z 27008KT 10SM FEW055 FEW250 28/12 A2995 RMK AO2 SLP142 T02830122
KDAB 211753Z 28009G14KT 10SM FEW050 FEW250 28/14 A2996 RMK AO2 SLP146 T02780144 10278 20194 58010
KDAB 211653Z 33008KT 10SM FEW044 SCT250 27/16 A2998 RMK AO2 SLP152 T02670156
KDAB 211553Z 31007KT 270V350 10SM FEW029 FEW250 26/17 A3001 RMK AO2 SLP160 T02610172
KDAB 211453Z 31009KT 10SM FEW027 24/17 A2999 RMK AO2 SLP156 T02440172 53001
KDAB 211353Z 27007KT 10SM FEW011 SCT080 23/18 A2999 RMK AO2 SLP154 T02280183
KDAB 211253Z 28004KT 9SM FEW007 BKN080 20/19 A2999 RMK AO2 SLP155 T02000189
KDAB 211226Z 28005KT 8SM FEW004 SCT010 OVC075 19/18 A2999 RMK AO2 T01940183
KDAB 211216Z 29004KT 7SM SCT004 BKN010 OVC075 19/18 A2999 RMK AO2 T01940183
KDAB 211209Z 29004KT 6SM BR BKN004 OVC010 19/18 A2999 RMK AO2 CIG 002V006 T01940183
KDAB 211153Z 28004KT 1SM BR OVC002 19/18 A2999 RMK AO2 SLP155 70067 T01940183 10194 20178 53011 RVRNO
KDAB 211053Z 28006KT 1SM BR OVC002 19/18 A2997 RMK AO2 SLP149 T01890183 RVRNO
KDAB 211049Z 29004KT 1SM BR OVC002 19/18 A2997 RMK AO2 RVRNO
KDAB 210953Z 26003KT 1/2SM FG VV002 19/18 A2996 RMK AO2 SLP144 T01890183 RVRNO
KDAB 210853Z 00000KT 4SM BR OVC003 18/18 A2995 RMK AO2 SLP142 T01830178 53006
KDAB 210753Z 00000KT 4SM BR OVC002 18/18 A2994 RMK AO2 SLP138 T01830178
KDAB 210737Z 00000KT 4SM BR OVC003 18/18 A2995 RMK AO2 T01830178
KDAB 210653Z 27003KT 7SM MIFG FEW003 SCT026 BKN110 18/17 A2993 RMK AO2 SLP136 T01780172
KDAB 210648Z 26003KT 7SM MIFG FEW009 SCT026 SCT110 18/17 A2993 RMK AO2
KDAB 210621Z 00000KT 6SM BR FEW009 BKN028 BKN110 18/17 A2994 RMK AO2 T01830172
KDAB 210553Z 00000KT 6SM BR SCT050 SCT120 18/17 A2994 RMK AO2 SLP137 T01830172 10211 20183 58007
KDAB 210453Z 00000KT 4SM BR FEW050 18/17 A2995 RMK AO2 SLP142 T01830172 402220183
KDAB 210353Z 00000KT 10SM MIFG FEW050 18/17 A2995 RMK AO2 SLP142 T01830172
KDAB 210253Z 00000KT 10SM MIFG FEW050 19/18 A2996 RMK AO2 SLP144 T01890178 51008